createdAt,value
2018-04-14T03:32:33.725Z,6.80
2018-04-14T03:35:07.414Z,6.90
2018-04-14T03:37:41.211Z,6.90
2018-04-14T03:40:15.820Z,7.00
2018-04-14T03:42:50.313Z,7.00
2018-04-14T03:45:24.134Z,7.00
2018-04-14T03:47:58.747Z,7.10
2018-04-14T03:50:33.733Z,7.10
2018-04-14T03:53:07.301Z,7.10
2018-04-14T03:55:41.138Z,7.00
2018-04-14T03:58:34.627Z,7.00
2018-04-14T04:01:08.484Z,7.00
2018-04-14T04:03:42.694Z,7.00
2018-04-14T04:06:16.393Z,6.90
2018-04-14T04:08:50.166Z,6.90
2018-04-14T04:11:24.379Z,6.90
2018-04-14T04:13:58.086Z,6.90
2018-04-14T04:16:32.159Z,6.90
2018-04-14T04:19:17.678Z,6.90
2018-04-14T04:22:03.540Z,6.90
2018-04-14T04:24:49.257Z,6.90
2018-04-14T04:27:23.824Z,6.70
2018-04-14T04:29:57.674Z,6.70
2018-04-14T04:32:31.465Z,6.70
2018-04-14T04:35:05.334Z,6.70
2018-04-14T04:37:39.085Z,6.70
2018-04-14T04:40:13.714Z,6.90
2018-04-14T04:42:47.510Z,6.80
2018-04-14T04:45:21.299Z,6.90
2018-04-14T04:47:57.739Z,6.80
2018-04-14T04:50:31.425Z,6.80
2018-04-14T04:53:05.215Z,6.80
2018-04-14T04:55:38.960Z,6.80
2018-04-14T04:58:13.509Z,7.00
2018-04-14T05:00:47.309Z,7.00
2018-04-14T05:03:21.079Z,7.10
2018-04-14T05:05:54.947Z,7.20
2018-04-14T05:08:29.564Z,7.20
2018-04-14T05:11:03.328Z,7.20
2018-04-14T05:13:37.474Z,7.20
2018-04-14T05:16:11.275Z,7.30
2018-04-14T05:18:45.122Z,7.40
2018-04-14T05:21:19.050Z,7.50
2018-04-14T05:23:53.316Z,7.50
2018-04-14T05:26:27.296Z,7.50
2018-04-14T05:29:01.031Z,7.60
2018-04-14T05:31:34.838Z,7.70
2018-04-14T05:34:08.643Z,7.60
2018-04-14T05:36:43.582Z,7.70
2018-04-14T05:39:18.283Z,7.70
2018-04-14T05:41:52.874Z,7.70
2018-04-14T05:44:27.025Z,7.70
2018-04-14T05:47:00.814Z,7.80
2018-04-14T05:49:40.827Z,7.80
2018-04-14T05:52:14.747Z,7.80
2018-04-14T05:54:49.299Z,7.90
2018-04-14T05:57:23.810Z,8.00
2018-04-14T05:59:58.245Z,8.10
2018-04-14T06:02:32.080Z,8.10
2018-04-14T06:05:05.928Z,8.20
2018-04-14T06:07:40.403Z,8.30
2018-04-14T06:10:14.230Z,8.30
2018-04-14T06:12:47.973Z,8.40
2018-04-14T06:15:21.743Z,8.60
2018-04-14T06:17:55.457Z,8.60
2018-04-14T06:20:30.481Z,8.70
2018-04-14T06:23:04.439Z,8.70
2018-04-14T06:25:38.141Z,8.80
2018-04-14T06:28:12.102Z,8.90
2018-04-14T06:30:46.586Z,9.00
2018-04-14T06:33:20.340Z,9.00
2018-04-14T06:35:54.904Z,9.20
2018-04-14T06:38:29.059Z,9.10
2018-04-14T06:41:02.809Z,9.10
2018-04-14T06:43:36.661Z,9.20
2018-04-14T06:46:11.271Z,9.40
2018-04-14T06:48:45.106Z,9.30
2018-04-14T06:51:19.687Z,9.50
2018-04-14T06:53:53.535Z,9.50
2018-04-14T06:56:28.128Z,9.80
2018-04-14T06:59:01.871Z,9.80
2018-04-14T07:01:38.111Z,9.90
2018-04-14T07:04:11.923Z,9.90
2018-04-14T07:06:47.582Z,10.00
2018-04-14T07:09:22.185Z,10.20
2018-04-14T07:11:55.831Z,10.20
2018-04-14T07:14:29.608Z,10.30
2018-04-14T07:17:05.371Z,10.40
2018-04-14T07:19:39.960Z,10.60
2018-04-14T07:22:13.875Z,10.50
2018-04-14T07:24:47.777Z,10.70
2018-04-14T07:27:22.527Z,11.00
2018-04-14T07:29:56.118Z,11.00
2018-04-14T07:32:29.955Z,11.20
2018-04-14T07:35:04.150Z,11.30
2018-04-14T07:37:38.061Z,11.40
2018-04-14T07:40:11.806Z,11.50
2018-04-14T07:42:46.469Z,11.70
2018-04-14T07:45:20.111Z,11.70
2018-04-14T07:47:53.980Z,11.80
2018-04-14T07:50:28.595Z,12.00
2018-04-14T07:53:02.338Z,12.00
2018-04-14T07:55:36.219Z,12.30
2018-04-14T07:58:10.059Z,12.40
2018-04-14T08:00:44.633Z,12.60
2018-04-14T08:03:18.518Z,12.60
2018-04-14T08:05:52.339Z,12.70
2018-04-14T08:08:27.729Z,13.00
2018-04-14T08:11:01.522Z,13.00
2018-04-14T08:13:35.341Z,13.20
2018-04-14T08:16:10.155Z,13.40
2018-04-14T08:18:44.694Z,13.80
2018-04-14T08:21:18.465Z,13.80
2018-04-14T08:23:53.058Z,14.40
2018-04-14T08:26:28.291Z,14.30
2018-04-14T08:29:02.874Z,16.60
2018-04-14T08:31:37.479Z,18.10
2018-04-14T08:34:13.044Z,19.20
2018-04-14T08:36:47.482Z,19.80
2018-04-14T08:39:22.070Z,20.50
2018-04-14T08:41:55.945Z,20.50
2018-04-14T08:44:30.539Z,21.40
2018-04-14T08:47:04.287Z,21.40
2018-04-14T08:49:38.716Z,22.20
2018-04-14T08:52:13.633Z,22.40
2018-04-14T08:54:47.390Z,22.30
2018-04-14T08:57:21.375Z,22.60
2018-04-14T08:59:56.211Z,22.80
2018-04-14T09:02:29.955Z,22.80
2018-04-14T09:05:03.768Z,22.00
2018-04-14T09:07:38.361Z,22.20
2018-04-14T09:10:12.261Z,22.20
2018-04-14T09:12:45.977Z,22.20
2018-04-14T09:15:20.567Z,21.00
2018-04-14T09:17:56.470Z,21.50
2018-04-14T09:20:30.176Z,21.50
2018-04-14T09:23:04.077Z,21.70
2018-04-14T09:25:38.570Z,22.10
2018-04-14T09:28:12.268Z,22.10
2018-04-14T09:30:46.877Z,23.00
2018-04-14T09:33:20.626Z,23.00
2018-04-14T09:35:54.474Z,22.40
2018-04-14T09:38:29.179Z,23.10
2018-04-14T09:41:02.971Z,23.00
2018-04-14T09:43:37.574Z,23.90
2018-04-14T09:46:11.393Z,23.80
2018-04-14T09:48:45.210Z,23.50
2018-04-14T09:51:19.800Z,22.70
2018-04-14T09:53:53.771Z,22.70
2018-04-14T09:56:27.637Z,23.20
2018-04-14T09:59:01.622Z,23.80
2018-04-14T10:01:35.466Z,24.30
2018-04-14T10:04:09.265Z,24.20
2018-04-14T10:06:43.044Z,23.70
2018-04-14T10:09:16.903Z,23.70
2018-04-14T10:11:50.680Z,24.00
2018-04-14T10:14:24.701Z,24.30
2018-04-14T10:16:58.508Z,23.80
2018-04-14T10:19:33.104Z,23.60
2018-04-14T10:22:06.734Z,23.50
2018-04-14T10:24:40.494Z,22.80
2018-04-14T10:27:14.198Z,22.50
2018-04-14T10:29:47.913Z,22.70
2018-04-14T10:32:21.710Z,23.10
2018-04-14T10:34:56.701Z,22.70
2018-04-14T10:37:31.197Z,22.70
2018-04-14T10:40:04.998Z,22.70
2018-04-14T10:42:39.726Z,23.00
2018-04-14T10:45:13.564Z,23.00
2018-04-14T10:47:48.059Z,22.80
2018-04-14T10:50:21.757Z,22.80
2018-04-14T10:52:55.603Z,22.50
2018-04-14T10:55:29.322Z,22.00
2018-04-14T10:58:03.047Z,22.00
2018-04-14T11:00:36.886Z,22.20
2018-04-14T11:03:10.985Z,22.10
2018-04-14T11:05:44.670Z,21.80
2018-04-14T11:08:19.338Z,21.90
2018-04-14T11:10:53.596Z,21.90
2018-04-14T11:13:27.491Z,22.20
2018-04-14T11:16:01.308Z,22.00
2018-04-14T11:18:34.991Z,21.80
2018-04-14T11:21:08.856Z,20.90
2018-04-14T11:23:42.643Z,20.90
2018-04-14T11:26:17.520Z,20.70
2018-04-14T11:28:52.343Z,20.60
2018-04-14T11:31:26.937Z,20.60
2018-04-14T11:34:00.707Z,20.60
2018-04-14T11:36:35.391Z,20.70
2018-04-14T11:39:10.346Z,21.20
2018-04-14T11:41:45.931Z,21.50
2018-04-14T11:44:20.718Z,21.20
2018-04-14T11:46:54.512Z,21.10
2018-04-14T11:49:28.634Z,21.20
2018-04-14T11:52:04.331Z,21.30
2018-04-14T11:54:38.301Z,20.90
2018-04-14T11:57:12.100Z,20.50
2018-04-14T11:59:45.853Z,20.40
2018-04-14T12:02:19.693Z,20.40
2018-04-14T12:04:54.518Z,20.30
2018-04-14T12:07:28.321Z,20.30
2018-04-14T12:10:02.238Z,20.50
2018-04-14T12:12:36.152Z,20.80
2018-04-14T12:15:09.978Z,21.20
2018-04-14T12:17:43.913Z,21.30
2018-04-14T12:20:17.675Z,21.30
2018-04-14T12:22:52.274Z,20.70
2018-04-14T12:25:26.054Z,20.70
2018-04-14T12:28:00.607Z,20.90
2018-04-14T12:30:34.854Z,20.90
2018-04-14T12:33:08.568Z,21.10
2018-04-14T12:35:43.186Z,21.10
2018-04-14T12:38:17.754Z,20.80
2018-04-14T12:40:52.441Z,20.80
2018-04-14T12:43:27.029Z,20.80
2018-04-14T12:46:01.186Z,20.90
2018-04-14T12:48:34.888Z,20.70
2018-04-14T12:51:09.590Z,21.00
2018-04-14T12:53:43.419Z,20.90
2018-04-14T12:56:18.015Z,20.90
2018-04-14T12:58:51.844Z,20.90
2018-04-14T13:01:26.767Z,20.50
2018-04-14T13:04:00.580Z,20.50
2018-04-14T13:06:35.206Z,20.30
2018-04-14T13:09:09.030Z,20.30
2018-04-14T13:11:42.825Z,20.40
2018-04-14T13:14:17.451Z,20.40
2018-04-14T13:16:51.232Z,20.40
2018-04-14T13:19:25.042Z,20.70
2018-04-14T13:21:58.831Z,20.90
2018-04-14T13:24:32.711Z,21.00
2018-04-14T13:27:07.489Z,20.90
2018-04-14T13:29:42.006Z,20.60
2018-04-14T13:32:15.829Z,20.60
2018-04-14T13:34:50.442Z,20.50
2018-04-14T13:37:25.048Z,20.60
2018-04-14T13:39:59.592Z,20.80
2018-04-14T13:42:33.419Z,20.80
2018-04-14T13:45:07.923Z,20.80
2018-04-14T13:47:41.686Z,20.80
2018-04-14T13:50:16.152Z,20.60
2018-04-14T13:52:50.761Z,20.50
2018-04-14T13:55:24.618Z,20.50
2018-04-14T13:57:59.328Z,20.30
2018-04-14T14:00:33.837Z,20.50
2018-04-14T14:03:07.657Z,20.50
2018-04-14T14:05:43.247Z,20.70
2018-04-14T14:08:17.999Z,20.70
2018-04-14T14:10:51.802Z,20.70
2018-04-14T14:13:26.412Z,20.70
2018-04-14T14:16:00.253Z,20.60
2018-04-14T14:18:34.744Z,20.60
2018-04-14T14:21:09.806Z,20.60
2018-04-14T14:23:43.417Z,20.60
2018-04-14T14:26:18.142Z,20.80
2018-04-14T14:28:52.645Z,20.80
2018-04-14T14:31:26.783Z,20.70
2018-04-14T14:34:00.599Z,20.70
2018-04-14T14:36:34.490Z,20.80
2018-04-14T14:39:08.094Z,20.90
2018-04-14T14:41:42.612Z,20.70
2018-04-14T14:44:16.369Z,20.70
2018-04-14T14:46:50.375Z,20.60
2018-04-14T14:49:24.158Z,20.50
2018-04-14T14:51:59.009Z,20.30
2018-04-14T14:54:32.707Z,20.40
2018-04-14T14:57:06.613Z,20.30
2018-04-14T14:59:40.290Z,20.30
2018-04-14T15:02:14.918Z,20.40
2018-04-14T15:04:48.764Z,20.50
2018-04-14T15:07:23.241Z,20.60
2018-04-14T15:09:57.832Z,20.60
2018-04-14T15:12:31.834Z,20.70
2018-04-14T15:15:06.371Z,20.60
2018-04-14T15:17:41.006Z,20.60
2018-04-14T15:20:14.787Z,20.60
2018-04-14T15:22:49.431Z,20.60
2018-04-14T15:25:23.255Z,20.60
2018-04-14T15:27:57.471Z,20.60
2018-04-14T15:30:31.874Z,20.60
2018-04-14T15:33:06.721Z,20.50
2018-04-14T15:35:40.490Z,20.50
2018-04-14T15:38:14.361Z,20.50
2018-04-14T15:40:48.938Z,20.60
2018-04-14T15:43:22.768Z,20.60
2018-04-14T15:45:56.555Z,20.60
2018-04-14T15:48:30.275Z,20.50
2018-04-14T15:51:05.004Z,20.50
2018-04-14T15:53:38.882Z,20.50
2018-04-14T15:56:12.547Z,20.50
2018-04-14T15:58:46.493Z,20.50
2018-04-14T16:01:21.038Z,20.30
2018-04-14T16:03:54.909Z,20.20
2018-04-14T16:06:29.782Z,20.20
2018-04-14T16:09:03.550Z,20.20
2018-04-14T16:11:37.712Z,20.10
2018-04-14T16:14:12.217Z,20.20
2018-04-14T16:16:46.021Z,20.20
2018-04-14T16:19:19.827Z,20.20
2018-04-14T16:21:54.650Z,20.10
2018-04-14T16:24:28.348Z,20.10
2018-04-14T16:27:02.796Z,20.10
2018-04-14T16:29:36.602Z,20.10
2018-04-14T16:32:11.215Z,20.10
2018-04-14T16:34:45.818Z,20.10
2018-04-14T16:37:19.658Z,20.10
2018-04-14T16:39:54.284Z,20.00
2018-04-14T16:42:28.789Z,19.90
2018-04-14T16:45:02.564Z,19.90
2018-04-14T16:47:36.383Z,19.80
2018-04-14T16:50:10.818Z,19.80
2018-04-14T16:52:44.636Z,19.80
2018-04-14T16:55:19.261Z,19.70
2018-04-14T16:57:53.806Z,19.70
2018-04-14T17:00:27.500Z,19.60
2018-04-14T17:03:01.489Z,19.70
2018-04-14T17:05:36.094Z,19.60
2018-04-14T17:08:09.896Z,19.70
2018-04-14T17:10:44.239Z,19.60
2018-04-14T17:13:19.129Z,19.50
2018-04-14T17:15:53.718Z,19.50
2018-04-14T17:18:28.609Z,19.50
2018-04-14T17:21:02.414Z,19.50
2018-04-14T17:23:36.628Z,19.50
2018-04-14T17:26:10.419Z,19.40
2018-04-14T17:28:44.235Z,19.30
2018-04-14T17:31:17.971Z,19.30
2018-04-14T17:33:52.816Z,19.20
2018-04-14T17:36:26.670Z,19.20
2018-04-14T17:39:00.459Z,19.20
2018-04-14T17:41:35.118Z,19.10
2018-04-14T17:44:09.025Z,19.10
2018-04-14T17:46:43.486Z,19.10
2018-04-14T17:49:18.071Z,19.00
2018-04-14T17:51:51.805Z,19.00
2018-04-14T17:54:26.213Z,18.90
2018-04-14T17:57:00.054Z,18.80
2018-04-14T17:59:33.794Z,18.80
2018-04-14T18:02:08.458Z,18.60
2018-04-14T18:04:42.170Z,18.60
2018-04-14T18:07:16.023Z,18.50
2018-04-14T18:09:49.699Z,18.40
2018-04-14T18:12:23.471Z,18.30
2018-04-14T18:14:57.306Z,18.30
2018-04-14T18:17:31.926Z,18.00
2018-04-14T18:20:06.211Z,18.00
2018-04-14T18:22:39.933Z,17.90
2018-04-14T18:25:13.770Z,17.70
2018-04-14T18:27:47.599Z,17.70
2018-04-14T18:30:21.310Z,17.50
2018-04-14T18:32:55.065Z,17.40
2018-04-14T18:35:29.028Z,17.30
2018-04-14T18:38:02.976Z,17.10
2018-04-14T18:40:36.697Z,17.10
2018-04-14T18:43:10.469Z,16.90
2018-04-14T18:45:44.298Z,16.90
2018-04-14T18:48:18.150Z,16.80
2018-04-14T18:50:51.888Z,16.70
2018-04-14T18:53:26.537Z,16.50
2018-04-14T18:56:01.141Z,16.50
2018-04-14T18:58:35.669Z,16.40
2018-04-14T19:01:09.375Z,16.40
2018-04-14T19:03:43.182Z,16.30
2018-04-14T19:06:16.957Z,16.30
2018-04-14T19:08:51.831Z,16.10
2018-04-14T19:11:25.535Z,16.10
2018-04-14T19:13:59.159Z,16.00
2018-04-14T19:16:32.974Z,16.00
2018-04-14T19:19:06.768Z,15.90
2018-04-14T19:21:40.984Z,15.80
2018-04-14T19:24:14.741Z,15.80
2018-04-14T19:26:48.614Z,15.70
2018-04-14T19:29:22.406Z,15.70
2018-04-14T19:31:57.012Z,15.60
2018-04-14T19:34:30.887Z,15.60
2018-04-14T19:37:04.864Z,15.60
2018-04-14T19:39:38.634Z,15.60
2018-04-14T19:42:12.502Z,15.50
2018-04-14T19:44:46.699Z,15.50
2018-04-14T19:47:20.494Z,15.50
2018-04-14T19:49:54.329Z,15.50
2018-04-14T19:52:28.197Z,15.50
2018-04-14T19:55:01.999Z,15.40
2018-04-14T19:57:36.590Z,15.30
2018-04-14T20:00:11.208Z,15.20
2018-04-14T20:02:44.972Z,15.30
2018-04-14T20:05:18.856Z,15.20
2018-04-14T20:07:52.653Z,15.20
2018-04-14T20:10:26.478Z,15.10
2018-04-14T20:13:00.272Z,15.00
2018-04-14T20:15:34.875Z,14.90
2018-04-14T20:18:08.653Z,14.90
2018-04-14T20:20:42.554Z,14.90
2018-04-14T20:23:16.510Z,14.90
2018-04-14T20:25:50.311Z,14.80
2018-04-14T20:28:24.158Z,14.80
2018-04-14T20:30:58.035Z,14.80
2018-04-14T20:33:31.838Z,14.80
2018-04-14T20:36:08.511Z,14.70
2018-04-14T20:38:45.760Z,14.70
2018-04-14T20:41:19.430Z,14.70
2018-04-14T20:43:53.218Z,14.70
2018-04-14T20:46:27.144Z,14.60
2018-04-14T20:49:00.958Z,14.60
2018-04-14T20:51:34.767Z,14.50
2018-04-14T20:54:08.679Z,14.50
2018-04-14T20:56:42.525Z,14.50
2018-04-14T20:59:16.452Z,14.50
